createdAt,value
2023-02-01T00:00:39.593Z,4
2023-02-01T00:01:40.197Z,4
2023-02-01T00:02:40.871Z,4
2023-02-01T00:03:41.600Z,4
2023-02-01T00:04:42.234Z,4
2023-02-01T00:05:42.839Z,4
2023-02-01T00:06:43.431Z,4
2023-02-01T00:07:44.081Z,4
2023-02-01T00:08:44.682Z,4
2023-02-01T00:09:45.277Z,4
2023-02-01T00:10:45.876Z,0
2023-02-01T00:11:46.480Z,0
2023-02-01T00:12:47.066Z,0
2023-02-01T00:13:47.656Z,0
2023-02-01T00:14:48.260Z,0
2023-02-01T00:15:48.919Z,0
2023-02-01T00:16:49.570Z,0
2023-02-01T00:17:50.172Z,0
2023-02-01T00:18:50.775Z,0
2023-02-01T00:19:51.370Z,0
2023-02-01T00:20:51.968Z,0
2023-02-01T00:21:52.562Z,0
2023-02-01T00:22:53.267Z,0
2023-02-01T00:23:53.861Z,0
2023-02-01T00:24:54.464Z,0
2023-02-01T00:25:55.051Z,0
2023-02-01T00:26:55.862Z,0
2023-02-01T00:27:56.468Z,0
2023-02-01T00:28:57.078Z,0
2023-02-01T00:29:57.743Z,0
2023-02-01T00:30:58.425Z,0
2023-02-01T00:31:59.122Z,0
2023-02-01T00:32:59.768Z,0
2023-02-01T00:34:00.365Z,0
2023-02-01T00:35:01.071Z,0
2023-02-01T00:36:01.665Z,0
2023-02-01T00:37:02.269Z,0
2023-02-01T00:38:02.859Z,0
2023-02-01T00:39:03.460Z,0
2023-02-01T00:40:04.208Z,0
2023-02-01T00:41:04.800Z,0
2023-02-01T00:42:05.401Z,0
2023-02-01T00:43:06.794Z,0
2023-02-01T00:44:07.400Z,0
2023-02-01T00:45:07.996Z,0
2023-02-01T00:46:08.874Z,0
2023-02-01T00:47:09.480Z,0
2023-02-01T00:48:10.074Z,0
2023-02-01T00:49:10.677Z,0
2023-02-01T00:50:11.272Z,0
2023-02-01T00:51:11.869Z,0
2023-02-01T00:52:12.461Z,0
2023-02-01T00:53:13.078Z,0
2023-02-01T00:54:13.671Z,0
2023-02-01T00:55:14.273Z,0
2023-02-01T00:56:14.873Z,0
2023-02-01T00:57:15.473Z,0
2023-02-01T00:58:16.069Z,0
2023-02-01T00:59:16.667Z,0
2023-02-01T01:00:17.261Z,0
2023-02-01T01:01:17.869Z,0
2023-02-01T01:02:18.561Z,0
2023-02-01T01:03:19.216Z,0
2023-02-01T01:04:19.807Z,0
2023-02-01T01:05:20.413Z,0
2023-02-01T01:06:21.091Z,0
2023-02-01T01:07:21.685Z,0
2023-02-01T01:08:22.288Z,0
2023-02-01T01:09:22.883Z,0
2023-02-01T01:10:23.788Z,0
2023-02-01T01:11:24.482Z,0
2023-02-01T01:12:25.071Z,0
2023-02-01T01:13:25.660Z,0
2023-02-01T01:14:26.263Z,0
2023-02-01T01:15:26.853Z,0
2023-02-01T01:16:27.500Z,0
2023-02-01T01:17:28.124Z,0
2023-02-01T01:18:28.718Z,0
2023-02-01T01:19:29.326Z,0
2023-02-01T01:20:29.926Z,0
2023-02-01T01:21:30.533Z,0
2023-02-01T01:22:31.114Z,0
2023-02-01T01:23:31.719Z,0
2023-02-01T01:24:32.316Z,0
2023-02-01T01:25:32.968Z,0
2023-02-01T01:26:33.578Z,0
2023-02-01T01:27:34.194Z,0
2023-02-01T01:28:34.765Z,0
2023-02-01T01:29:35.368Z,0
2023-02-01T01:30:36.015Z,0
2023-02-01T01:31:36.653Z,0
2023-02-01T01:32:38.103Z,0
2023-02-01T01:33:38.687Z,0
2023-02-01T01:34:39.389Z,0
2023-02-01T01:35:39.979Z,0
2023-02-01T01:36:40.585Z,0
2023-02-01T01:37:41.185Z,0
2023-02-01T01:38:41.776Z,0
2023-02-01T01:39:42.385Z,0
2023-02-01T01:40:43.891Z,0
2023-02-01T01:41:44.497Z,0
2023-02-01T01:42:45.101Z,0
2023-02-01T01:43:45.691Z,0
2023-02-01T01:44:46.449Z,0
2023-02-01T01:45:47.054Z,0
2023-02-01T01:46:47.819Z,0
2023-02-01T01:47:48.403Z,0
2023-02-01T01:48:48.999Z,0
2023-02-01T01:49:49.693Z,0
2023-02-01T01:50:50.278Z,0
2023-02-01T01:51:50.939Z,0
2023-02-01T01:52:51.540Z,0
2023-02-01T01:53:52.132Z,0
2023-02-01T01:54:52.725Z,0
2023-02-01T01:55:53.346Z,0
2023-02-01T01:56:53.919Z,0
2023-02-01T01:57:54.522Z,0
2023-02-01T01:58:55.123Z,0
2023-02-01T01:59:55.728Z,0
2023-02-01T02:00:56.349Z,0
2023-02-01T02:01:56.979Z,0
2023-02-01T02:02:57.575Z,0
2023-02-01T02:03:58.157Z,0
2023-02-01T02:04:58.753Z,0
2023-02-01T02:05:59.347Z,0
2023-02-01T02:06:59.947Z,0
2023-02-01T02:08:00.619Z,0
2023-02-01T02:09:01.206Z,0
2023-02-01T02:10:01.858Z,0
2023-02-01T02:11:03.311Z,0
2023-02-01T02:12:03.913Z,0
2023-02-01T02:13:04.528Z,0
2023-02-01T02:14:05.105Z,0
2023-02-01T02:15:05.700Z,0
2023-02-01T02:16:06.381Z,0
2023-02-01T02:17:06.995Z,0
2023-02-01T02:18:07.587Z,0
2023-02-01T02:19:08.192Z,0
2023-02-01T02:20:08.786Z,0
2023-02-01T02:21:09.390Z,0
2023-02-01T02:22:10.066Z,0
2023-02-01T02:23:10.678Z,0
2023-02-01T02:24:11.314Z,0
2023-02-01T02:25:11.914Z,0
2023-02-01T02:26:12.509Z,0
2023-02-01T02:27:13.102Z,0
2023-02-01T02:28:13.706Z,0
2023-02-01T02:29:14.296Z,0
2023-02-01T02:30:14.894Z,0
2023-02-01T02:31:15.529Z,0
2023-02-01T02:32:16.119Z,0
2023-02-01T02:33:16.724Z,0
2023-02-01T02:34:17.339Z,0
2023-02-01T02:35:17.931Z,0
2023-02-01T02:36:18.590Z,0
2023-02-01T02:37:19.185Z,0
2023-02-01T02:38:20.587Z,0
2023-02-01T02:39:21.189Z,0
2023-02-01T02:40:22.060Z,0
2023-02-01T02:41:22.977Z,0
2023-02-01T02:42:23.581Z,0
2023-02-01T02:43:24.253Z,0
2023-02-01T02:44:24.852Z,0
2023-02-01T02:45:25.557Z,0
2023-02-01T02:46:26.254Z,0
2023-02-01T02:47:26.854Z,0
2023-02-01T02:48:27.677Z,0
2023-02-01T02:49:28.349Z,0
2023-02-01T02:50:29.009Z,0
2023-02-01T02:51:29.653Z,0
2023-02-01T02:52:30.261Z,0
2023-02-01T02:53:30.853Z,0
2023-02-01T02:54:31.646Z,0
2023-02-01T02:55:32.238Z,0
2023-02-01T02:56:32.830Z,0
2023-02-01T02:57:33.432Z,0
2023-02-01T02:58:34.033Z,0
2023-02-01T02:59:34.627Z,0
2023-02-01T03:00:35.221Z,0
2023-02-01T03:01:35.828Z,0
2023-02-01T03:02:36.460Z,0
2023-02-01T03:03:37.059Z,0
2023-02-01T03:04:37.649Z,0
2023-02-01T03:05:38.251Z,0
2023-02-01T03:06:38.847Z,0
2023-02-01T03:07:39.511Z,0
2023-02-01T03:08:40.113Z,0
2023-02-01T03:09:40.730Z,0
2023-02-01T03:10:41.330Z,0
2023-02-01T03:11:41.933Z,0
2023-02-01T03:12:42.532Z,0
2023-02-01T03:13:43.136Z,0
2023-02-01T03:14:43.728Z,0
2023-02-01T03:15:44.328Z,0
2023-02-01T03:16:44.978Z,0
2023-02-01T03:17:45.557Z,0
2023-02-01T03:18:46.163Z,0
2023-02-01T03:19:46.760Z,0
2023-02-01T03:20:47.363Z,0
2023-02-01T03:21:47.963Z,0
2023-02-01T03:22:48.560Z,0
2023-02-01T03:23:49.212Z,0
2023-02-01T03:24:49.815Z,0
2023-02-01T03:25:50.411Z,0
2023-02-01T03:26:51.047Z,0
2023-02-01T03:27:51.659Z,0
2023-02-01T03:28:52.261Z,0
2023-02-01T03:29:52.864Z,0
2023-02-01T03:30:53.542Z,0
2023-02-01T03:31:54.242Z,0
2023-02-01T03:32:54.905Z,0
2023-02-01T03:33:55.558Z,0
2023-02-01T03:34:56.143Z,0
2023-02-01T03:35:56.743Z,0
2023-02-01T03:36:57.395Z,0
2023-02-01T03:37:57.995Z,0
2023-02-01T03:38:58.596Z,0
2023-02-01T03:39:59.197Z,0
2023-02-01T03:40:59.790Z,0
2023-02-01T03:42:00.396Z,0
2023-02-01T03:43:01.045Z,0
2023-02-01T03:44:01.643Z,0
2023-02-01T03:45:02.245Z,0
2023-02-01T03:46:02.893Z,0
2023-02-01T03:47:03.477Z,0
2023-02-01T03:48:04.076Z,0
2023-02-01T03:49:04.794Z,0
2023-02-01T03:50:05.378Z,0
2023-02-01T03:51:05.967Z,0
2023-02-01T03:52:06.577Z,0
2023-02-01T03:53:07.164Z,0
2023-02-01T03:54:07.806Z,0
2023-02-01T03:55:08.407Z,0
2023-02-01T03:56:09.004Z,0
2023-02-01T03:57:09.752Z,0
2023-02-01T03:58:10.351Z,0
2023-02-01T03:59:10.955Z,0
2023-02-01T04:00:11.605Z,0
2023-02-01T04:01:12.254Z,0
2023-02-01T04:02:12.908Z,0
2023-02-01T04:03:13.510Z,0
2023-02-01T04:04:14.103Z,0
2023-02-01T04:05:14.697Z,0
2023-02-01T04:06:15.298Z,0
2023-02-01T04:07:15.888Z,0
2023-02-01T04:08:16.489Z,0
2023-02-01T04:09:17.086Z,0
2023-02-01T04:10:19.723Z,0
2023-02-01T04:11:19.335Z,0
2023-02-01T04:12:19.936Z,0
2023-02-01T04:13:21.334Z,0
2023-02-01T04:14:22.001Z,0
2023-02-01T04:15:22.605Z,0
2023-02-01T04:16:23.249Z,0
2023-02-01T04:17:23.830Z,0
2023-02-01T04:18:24.433Z,0
2023-02-01T04:19:25.034Z,0
2023-02-01T04:20:25.879Z,0
2023-02-01T04:21:26.546Z,0
2023-02-01T04:22:27.148Z,0
2023-02-01T04:23:27.746Z,0
2023-02-01T04:24:28.336Z,0
2023-02-01T04:25:28.927Z,0
2023-02-01T04:26:29.526Z,0
2023-02-01T04:27:30.151Z,0
2023-02-01T04:28:30.727Z,0
2023-02-01T04:29:31.380Z,0
2023-02-01T04:30:32.045Z,0
2023-02-01T04:31:32.724Z,0
2023-02-01T04:32:33.361Z,0
2023-02-01T04:33:33.961Z,0
2023-02-01T04:34:34.624Z,0
2023-02-01T04:35:35.228Z,0
2023-02-01T04:36:35.895Z,0
2023-02-01T04:37:36.500Z,0
2023-02-01T04:38:37.150Z,0
2023-02-01T04:39:37.745Z,0
2023-02-01T04:40:38.339Z,0
2023-02-01T04:41:38.957Z,0
2023-02-01T04:42:39.558Z,0
2023-02-01T04:43:40.147Z,0
2023-02-01T04:44:40.790Z,0
2023-02-01T04:45:41.384Z,0
2023-02-01T04:46:41.987Z,0
2023-02-01T04:47:42.590Z,0
2023-02-01T04:48:43.194Z,0
2023-02-01T04:49:43.865Z,0
2023-02-01T04:50:44.469Z,0
2023-02-01T04:51:45.068Z,0
2023-02-01T04:52:45.659Z,0
2023-02-01T04:53:46.259Z,0
2023-02-01T04:54:46.847Z,0
2023-02-01T04:55:47.452Z,0
2023-02-01T04:56:48.037Z,0
2023-02-01T04:57:48.698Z,0
2023-02-01T04:58:49.285Z,0
2023-02-01T04:59:49.876Z,0
2023-02-01T05:00:51.269Z,0
2023-02-01T05:01:51.868Z,0
2023-02-01T05:02:52.522Z,0
2023-02-01T05:03:53.112Z,0
2023-02-01T05:04:53.731Z,0
2023-02-01T05:05:54.331Z,0
2023-02-01T05:06:54.925Z,0
2023-02-01T05:07:55.587Z,0
2023-02-01T05:08:57.035Z,0
2023-02-01T05:09:57.640Z,0
2023-02-01T05:10:58.302Z,0
2023-02-01T05:11:58.909Z,0
2023-02-01T05:12:59.499Z,0
2023-02-01T05:14:02.148Z,0
2023-02-01T05:15:01.685Z,0
2023-02-01T05:16:02.328Z,0
2023-02-01T05:17:02.941Z,0
2023-02-01T05:18:03.551Z,0
2023-02-01T05:19:04.138Z,0
2023-02-01T05:20:04.739Z,0
2023-02-01T05:21:05.495Z,0
2023-02-01T05:22:06.067Z,0
2023-02-01T05:23:07.470Z,0
2023-02-01T05:24:08.072Z,0
2023-02-01T05:25:08.732Z,0
2023-02-01T05:26:09.324Z,0
2023-02-01T05:27:09.921Z,0
2023-02-01T05:28:10.572Z,0
2023-02-01T05:29:11.149Z,0
2023-02-01T05:30:11.756Z,0
2023-02-01T05:31:12.452Z,0
2023-02-01T05:32:22.089Z,0
2023-02-01T05:33:14.654Z,0
2023-02-01T05:34:15.253Z,0
2023-02-01T05:35:15.844Z,0
2023-02-01T05:36:16.461Z,0
2023-02-01T05:37:17.057Z,0
2023-02-01T05:38:17.696Z,0
2023-02-01T05:39:18.297Z,0
2023-02-01T05:40:18.895Z,0
2023-02-01T05:41:19.494Z,0
2023-02-01T05:42:20.106Z,0
2023-02-01T05:43:20.689Z,0
2023-02-01T05:44:21.291Z,0
2023-02-01T05:45:21.921Z,0
2023-02-01T05:46:22.560Z,0
2023-02-01T05:47:23.155Z,0
2023-02-01T05:48:23.900Z,0
2023-02-01T05:49:24.495Z,0
2023-02-01T05:50:25.423Z,0
2023-02-01T05:51:26.058Z,0
2023-02-01T05:52:26.659Z,0
2023-02-01T05:53:27.250Z,0
2023-02-01T05:54:27.843Z,0
2023-02-01T05:55:28.436Z,0
2023-02-01T05:56:29.096Z,0
2023-02-01T05:57:29.722Z,0
2023-02-01T05:58:30.303Z,0
2023-02-01T05:59:30.903Z,0
2023-02-01T06:00:31.494Z,0
2023-02-01T06:01:32.136Z,0
2023-02-01T06:02:32.742Z,0
2023-02-01T06:03:33.366Z,0
2023-02-01T06:04:33.954Z,0
2023-02-01T06:05:34.559Z,0
2023-02-01T06:06:35.157Z,0
2023-02-01T06:07:35.742Z,0
2023-02-01T06:08:36.397Z,0
2023-02-01T06:09:36.982Z,0
2023-02-01T06:10:37.583Z,0
2023-02-01T06:11:39.027Z,0
2023-02-01T06:12:39.628Z,0
2023-02-01T06:13:40.224Z,0
2023-02-01T06:14:40.816Z,0
2023-02-01T06:15:41.433Z,0
2023-02-01T06:16:42.010Z,0
2023-02-01T06:17:42.609Z,0
2023-02-01T06:18:43.203Z,0
2023-02-01T06:19:43.794Z,0
2023-02-01T06:20:44.398Z,0
2023-02-01T06:21:45.042Z,0
2023-02-01T06:22:45.636Z,0
2023-02-01T06:23:46.279Z,0
2023-02-01T06:24:46.919Z,0
2023-02-01T06:25:47.510Z,0
2023-02-01T06:26:48.147Z,0
2023-02-01T06:27:48.752Z,0
2023-02-01T06:28:49.357Z,0
2023-02-01T06:29:49.947Z,0
2023-02-01T06:30:51.444Z,0
2023-02-01T06:31:52.145Z,0
2023-02-01T06:32:52.786Z,0
2023-02-01T06:33:53.375Z,0
2023-02-01T06:34:53.966Z,0
2023-02-01T06:35:54.570Z,0
2023-02-01T06:36:55.224Z,0
2023-02-01T06:37:55.814Z,0
2023-02-01T06:38:56.431Z,0
2023-02-01T06:39:57.003Z,0
2023-02-01T06:40:57.649Z,0
2023-02-01T06:41:58.261Z,0
2023-02-01T06:42:58.922Z,0
2023-02-01T06:43:59.518Z,0
2023-02-01T06:45:00.189Z,0
2023-02-01T06:46:00.840Z,0
2023-02-01T06:47:01.451Z,0
2023-02-01T06:48:02.076Z,0
2023-02-01T06:49:02.691Z,0
2023-02-01T06:50:03.271Z,0
2023-02-01T06:51:03.875Z,0
2023-02-01T06:52:04.474Z,0
2023-02-01T06:53:05.061Z,0
2023-02-01T06:54:05.652Z,0
2023-02-01T06:55:06.253Z,0
2023-02-01T06:56:06.848Z,0
2023-02-01T06:57:07.448Z,0
2023-02-01T06:58:08.051Z,0
2023-02-01T06:59:08.660Z,0
2023-02-01T07:00:09.276Z,0
2023-02-01T07:01:09.905Z,0
2023-02-01T07:02:10.597Z,0
2023-02-01T07:03:11.239Z,0
2023-02-01T07:04:11.842Z,0
2023-02-01T07:05:12.504Z,0
2023-02-01T07:06:13.104Z,0
2023-02-01T07:07:13.700Z,0
2023-02-01T07:08:14.293Z,0
2023-02-01T07:09:14.943Z,0
2023-02-01T07:10:15.536Z,0
2023-02-01T07:11:16.136Z,0
2023-02-01T07:12:16.737Z,0
2023-02-01T07:13:17.346Z,0
2023-02-01T07:14:17.949Z,0
2023-02-01T07:15:18.535Z,0
2023-02-01T07:16:19.278Z,0
2023-02-01T07:17:19.904Z,0
2023-02-01T07:18:20.497Z,0
2023-02-01T07:19:21.089Z,0
2023-02-01T07:20:22.047Z,0
2023-02-01T07:21:22.812Z,0
2023-02-01T07:22:23.455Z,0
2023-02-01T07:23:24.058Z,0
2023-02-01T07:24:24.733Z,0
2023-02-01T07:25:25.334Z,0
2023-02-01T07:26:25.975Z,0
2023-02-01T07:27:26.588Z,0
2023-02-01T07:28:27.202Z,0
2023-02-01T07:29:27.835Z,0
2023-02-01T07:30:28.515Z,0
2023-02-01T07:31:29.114Z,0
2023-02-01T07:32:29.770Z,0
2023-02-01T07:33:30.374Z,0
2023-02-01T07:34:31.147Z,0
2023-02-01T07:35:31.717Z,0
2023-02-01T07:36:32.319Z,0
2023-02-01T07:37:33.786Z,0
2023-02-01T07:38:34.423Z,0
2023-02-01T07:39:35.008Z,0
2023-02-01T07:40:35.600Z,0
2023-02-01T07:41:36.202Z,0
2023-02-01T07:42:36.957Z,0
2023-02-01T07:43:37.567Z,0
2023-02-01T07:44:39.070Z,0
2023-02-01T07:45:39.697Z,0
2023-02-01T07:46:40.287Z,0
2023-02-01T07:47:40.888Z,0
2023-02-01T07:48:41.487Z,0
2023-02-01T07:49:42.088Z,0
2023-02-01T07:50:42.681Z,0
2023-02-01T07:51:43.286Z,0
2023-02-01T07:52:43.886Z,0
2023-02-01T07:53:44.563Z,0
2023-02-01T07:54:45.230Z,0
2023-02-01T07:55:45.830Z,0
2023-02-01T07:56:46.423Z,0
2023-02-01T07:57:47.017Z,0
2023-02-01T07:58:47.611Z,0
2023-02-01T07:59:48.206Z,4
2023-02-01T08:00:48.859Z,4
2023-02-01T08:01:49.530Z,4
2023-02-01T08:02:50.141Z,4
2023-02-01T08:03:50.743Z,4
2023-02-01T08:04:51.332Z,4
2023-02-01T08:05:51.931Z,0
2023-02-01T08:06:52.523Z,0
2023-02-01T08:07:53.130Z,0
2023-02-01T08:08:53.731Z,0
2023-02-01T08:09:55.179Z,0
2023-02-01T08:10:55.769Z,0
2023-02-01T08:11:56.371Z,0
2023-02-01T08:12:56.970Z,0
2023-02-01T08:13:57.569Z,0
2023-02-01T08:14:58.162Z,0
2023-02-01T08:15:58.764Z,0
2023-02-01T08:16:59.366Z,0
2023-02-01T08:17:59.965Z,0
2023-02-01T08:19:00.565Z,0
2023-02-01T08:20:01.159Z,0
2023-02-01T08:21:01.763Z,0
2023-02-01T08:22:02.361Z,0
2023-02-01T08:23:02.951Z,0
2023-02-01T08:24:03.555Z,0
2023-02-01T08:25:04.159Z,0
2023-02-01T08:26:04.741Z,0
2023-02-01T08:27:05.355Z,0
2023-02-01T08:28:05.943Z,0
2023-02-01T08:29:06.533Z,0
2023-02-01T08:30:07.134Z,0
2023-02-01T08:31:07.768Z,0
2023-02-01T08:32:08.503Z,0
2023-02-01T08:33:09.107Z,0
2023-02-01T08:34:09.697Z,0
2023-02-01T08:35:11.096Z,0
2023-02-01T08:36:11.718Z,0
2023-02-01T08:37:12.371Z,0
2023-02-01T08:38:12.972Z,0
2023-02-01T08:39:13.714Z,0
2023-02-01T08:40:14.305Z,0
2023-02-01T08:41:14.899Z,0
2023-02-01T08:42:15.503Z,0
2023-02-01T08:43:16.223Z,0
2023-02-01T08:44:16.890Z,0
2023-02-01T08:45:17.477Z,0
2023-02-01T08:46:18.368Z,0
2023-02-01T08:47:18.984Z,0
2023-02-01T08:48:19.583Z,0
2023-02-01T08:49:20.199Z,0
2023-02-01T08:50:21.925Z,0
2023-02-01T08:51:22.686Z,0
2023-02-01T08:52:23.282Z,0
2023-02-01T08:53:23.882Z,0
2023-02-01T08:54:24.471Z,0
2023-02-01T08:55:25.067Z,0
2023-02-01T08:56:25.716Z,0
2023-02-01T08:57:26.292Z,0
2023-02-01T08:58:26.885Z,0
2023-02-01T08:59:29.555Z,0
2023-02-01T09:00:29.075Z,0
2023-02-01T09:01:29.771Z,0
2023-02-01T09:02:30.347Z,0
2023-02-01T09:03:31.014Z,0
2023-02-01T09:04:31.605Z,0
2023-02-01T09:05:47.530Z,0
2023-02-01T09:06:33.797Z,0
2023-02-01T09:07:34.391Z,0
2023-02-01T09:08:34.990Z,0
2023-02-01T09:09:35.604Z,0
2023-02-01T09:10:36.759Z,0
2023-02-01T09:11:37.641Z,0
2023-02-01T09:12:38.232Z,0
2023-02-01T09:13:38.823Z,0
2023-02-01T09:14:39.422Z,0
2023-02-01T09:15:40.054Z,0
2023-02-01T09:16:40.651Z,0
2023-02-01T09:17:41.240Z,0
2023-02-01T09:18:50.671Z,0
2023-02-01T09:19:43.484Z,0
2023-02-01T09:20:44.150Z,0
2023-02-01T09:21:44.750Z,0
2023-02-01T09:22:45.344Z,0
2023-02-01T09:23:45.932Z,0
2023-02-01T09:24:46.576Z,0
2023-02-01T09:25:47.178Z,0
2023-02-01T09:26:47.803Z,0
2023-02-01T09:27:48.411Z,0
2023-02-01T09:28:49.003Z,0
2023-02-01T09:29:49.605Z,0
2023-02-01T09:30:50.291Z,0
2023-02-01T09:32:03.028Z,0
2023-02-01T09:32:52.509Z,0
2023-02-01T09:33:53.089Z,0
2023-02-01T09:34:53.693Z,0
2023-02-01T09:35:54.292Z,0
2023-02-01T09:36:54.929Z,0
2023-02-01T09:37:55.538Z,0
2023-02-01T09:38:56.124Z,0
2023-02-01T09:39:56.776Z,0
2023-02-01T09:40:57.367Z,0
2023-02-01T09:41:57.988Z,0
2023-02-01T09:42:58.572Z,0
2023-02-01T09:43:59.166Z,4
2023-02-01T09:44:59.782Z,16
2023-02-01T09:46:00.546Z,12
2023-02-01T09:47:01.161Z,12
2023-02-01T09:48:01.815Z,12
2023-02-01T09:49:02.392Z,12
2023-02-01T09:50:02.983Z,16
2023-02-01T09:51:03.585Z,12
2023-02-01T09:52:04.214Z,12
2023-02-01T09:53:04.994Z,16
2023-02-01T09:54:05.594Z,16
2023-02-01T09:55:06.206Z,12
2023-02-01T09:56:06.827Z,12
2023-02-01T09:57:07.441Z,16
2023-02-01T09:58:08.033Z,16
2023-02-01T09:59:08.628Z,12
2023-02-01T10:00:09.221Z,16
2023-02-01T10:01:09.842Z,16
2023-02-01T10:02:10.427Z,20
2023-02-01T10:03:11.163Z,16
2023-02-01T10:04:11.802Z,20
2023-02-01T10:05:12.397Z,16
2023-02-01T10:06:13.001Z,20
2023-02-01T10:07:13.601Z,20
2023-02-01T10:08:14.203Z,20
2023-02-01T10:09:14.802Z,20
2023-02-01T10:10:15.396Z,20
2023-02-01T10:11:15.988Z,24
2023-02-01T10:12:16.592Z,20
2023-02-01T10:13:17.195Z,20
2023-02-01T10:14:17.793Z,24
2023-02-01T10:15:18.460Z,20
2023-02-01T10:16:19.164Z,24
2023-02-01T10:17:19.816Z,28
2023-02-01T10:18:20.486Z,28
2023-02-01T10:19:21.087Z,24
2023-02-01T10:20:22.369Z,28
2023-02-01T10:21:23.120Z,28
2023-02-01T10:22:26.696Z,28
2023-02-01T10:23:33.987Z,28
2023-02-01T10:24:26.061Z,28
2023-02-01T10:25:26.649Z,28
2023-02-01T10:26:27.292Z,32
2023-02-01T10:27:27.881Z,28
2023-02-01T10:28:28.485Z,28
2023-02-01T10:29:29.080Z,32
2023-02-01T10:30:32.785Z,28
2023-02-01T10:31:30.497Z,28
2023-02-01T10:32:31.143Z,32
2023-02-01T10:33:31.751Z,28
2023-02-01T10:34:32.335Z,32
2023-02-01T10:35:32.924Z,28
2023-02-01T10:36:33.525Z,32
2023-02-01T10:37:34.176Z,32
2023-02-01T10:38:34.761Z,32
2023-02-01T10:39:35.353Z,32
2023-02-01T10:40:35.951Z,32
2023-02-01T10:41:36.656Z,36
2023-02-01T10:42:37.254Z,32
2023-02-01T10:43:37.855Z,32
2023-02-01T10:44:38.477Z,36
2023-02-01T10:45:39.057Z,32
2023-02-01T10:46:39.716Z,36
2023-02-01T10:47:40.360Z,36
2023-02-01T10:48:41.113Z,36
2023-02-01T10:49:41.761Z,36
2023-02-01T10:50:42.377Z,36
2023-02-01T10:51:42.962Z,36
2023-02-01T10:52:43.567Z,36
2023-02-01T10:53:44.158Z,36
2023-02-01T10:54:44.764Z,36
2023-02-01T10:55:45.363Z,36
2023-02-01T10:56:46.139Z,36
2023-02-01T10:57:46.759Z,36
2023-02-01T10:58:47.356Z,36
2023-02-01T10:59:47.948Z,36
2023-02-01T11:00:48.701Z,36
2023-02-01T11:01:49.374Z,36
2023-02-01T11:02:50.015Z,36
2023-02-01T11:03:50.602Z,36
2023-02-01T11:04:51.205Z,36
2023-02-01T11:05:51.799Z,36
2023-02-01T11:06:52.400Z,36
2023-02-01T11:07:53.002Z,36
2023-02-01T11:08:53.597Z,36
2023-02-01T11:09:54.197Z,40
2023-02-01T11:10:54.802Z,40
2023-02-01T11:11:55.403Z,40
2023-02-01T11:12:56.012Z,40
2023-02-01T11:13:56.671Z,40
2023-02-01T11:14:57.267Z,40
2023-02-01T11:15:57.948Z,44
2023-02-01T11:16:58.548Z,44
2023-02-01T11:17:59.152Z,44
2023-02-01T11:18:59.785Z,40
2023-02-01T11:20:00.397Z,40
2023-02-01T11:21:00.977Z,40
2023-02-01T11:22:01.581Z,36
2023-02-01T11:23:02.182Z,36
2023-02-01T11:24:02.779Z,32
2023-02-01T11:25:03.457Z,28
2023-02-01T11:26:04.041Z,28
2023-02-01T11:27:06.823Z,28
2023-02-01T11:28:06.239Z,24
2023-02-01T11:29:06.884Z,20
2023-02-01T11:30:07.481Z,20
2023-02-01T11:31:08.253Z,16
2023-02-01T11:32:08.887Z,20
2023-02-01T11:33:09.480Z,20
2023-02-01T11:34:10.081Z,20
2023-02-01T11:35:10.685Z,16
2023-02-01T11:36:11.274Z,16
2023-02-01T11:37:11.869Z,20
2023-02-01T11:38:12.563Z,16
2023-02-01T11:39:13.148Z,16
2023-02-01T11:40:13.748Z,16
2023-02-01T11:41:14.329Z,16
2023-02-01T11:42:14.934Z,16
2023-02-01T11:43:15.532Z,16
2023-02-01T11:44:16.114Z,16
2023-02-01T11:45:16.717Z,16
2023-02-01T11:46:17.354Z,16
2023-02-01T11:47:17.973Z,16
2023-02-01T11:48:26.850Z,20
2023-02-01T11:49:20.209Z,20
2023-02-01T11:50:20.800Z,20
2023-02-01T11:51:21.408Z,20
2023-02-01T11:52:22.005Z,20
2023-02-01T11:53:23.444Z,20
2023-02-01T11:54:24.039Z,20
2023-02-01T11:55:24.644Z,20
2023-02-01T11:56:25.235Z,20
2023-02-01T11:57:25.841Z,20
2023-02-01T11:58:26.443Z,20
2023-02-01T11:59:27.960Z,20
2023-02-01T12:00:29.457Z,20
2023-02-01T12:01:30.052Z,20
2023-02-01T12:02:30.656Z,20
2023-02-01T12:03:31.278Z,20
2023-02-01T12:04:31.890Z,20
2023-02-01T12:05:32.489Z,20
2023-02-01T12:06:33.079Z,20
2023-02-01T12:07:33.674Z,20
2023-02-01T12:08:34.268Z,20
2023-02-01T12:09:34.869Z,20
2023-02-01T12:10:35.467Z,20
2023-02-01T12:11:36.069Z,16
2023-02-01T12:12:36.668Z,20
2023-02-01T12:13:37.263Z,16
2023-02-01T12:14:37.861Z,16
2023-02-01T12:15:38.499Z,16
2023-02-01T12:16:39.126Z,20
2023-02-01T12:17:39.742Z,16
2023-02-01T12:18:40.345Z,16
2023-02-01T12:19:40.945Z,16
2023-02-01T12:20:41.539Z,16
2023-02-01T12:21:42.206Z,20
2023-02-01T12:22:42.800Z,20
2023-02-01T12:23:43.402Z,16
2023-02-01T12:24:44.009Z,16
2023-02-01T12:25:44.597Z,16
2023-02-01T12:26:45.322Z,20
2023-02-01T12:27:45.871Z,16
2023-02-01T12:28:46.461Z,20
2023-02-01T12:29:47.124Z,20
2023-02-01T12:30:48.538Z,20
2023-02-01T12:31:49.979Z,20
2023-02-01T12:32:51.451Z,20
2023-02-01T12:33:52.085Z,20
2023-02-01T12:34:52.850Z,20
2023-02-01T12:35:53.449Z,20
2023-02-01T12:36:54.051Z,20
2023-02-01T12:37:54.712Z,20
2023-02-01T12:38:55.475Z,20
2023-02-01T12:39:56.134Z,20
2023-02-01T12:40:56.729Z,20
2023-02-01T12:41:57.331Z,20
2023-02-01T12:42:57.930Z,20
2023-02-01T12:43:58.529Z,20
2023-02-01T12:44:59.132Z,20
2023-02-01T12:45:59.781Z,20
2023-02-01T12:47:00.363Z,20
2023-02-01T12:48:00.965Z,20
2023-02-01T12:49:01.587Z,20
2023-02-01T12:50:02.225Z,20
2023-02-01T12:51:02.819Z,20
2023-02-01T12:52:03.431Z,20
2023-02-01T12:53:04.009Z,20
2023-02-01T12:54:04.608Z,16
2023-02-01T12:55:05.235Z,16
2023-02-01T12:56:05.841Z,16
2023-02-01T12:57:06.443Z,16
2023-02-01T12:58:07.032Z,16
2023-02-01T12:59:07.625Z,16
2023-02-01T13:00:08.225Z,16
2023-02-01T13:01:08.833Z,20
2023-02-01T13:02:09.478Z,20
2023-02-01T13:03:10.069Z,20
2023-02-01T13:04:10.659Z,16
2023-02-01T13:05:11.255Z,16
2023-02-01T13:06:11.849Z,20
2023-02-01T13:07:12.455Z,20
2023-02-01T13:08:13.064Z,20
2023-02-01T13:09:13.673Z,20
2023-02-01T13:10:14.328Z,20
2023-02-01T13:11:14.973Z,20
2023-02-01T13:12:15.578Z,20
2023-02-01T13:13:16.175Z,20
2023-02-01T13:14:16.777Z,20
2023-02-01T13:15:17.361Z,20
2023-02-01T13:16:19.144Z,20
2023-02-01T13:17:19.555Z,20
2023-02-01T13:18:20.151Z,20
2023-02-01T13:19:20.752Z,20
2023-02-01T13:20:21.867Z,20
2023-02-01T13:21:22.796Z,20
2023-02-01T13:22:23.392Z,20
2023-02-01T13:23:23.982Z,20
2023-02-01T13:24:24.585Z,20
2023-02-01T13:25:25.635Z,20
2023-02-01T13:26:26.467Z,20
2023-02-01T13:27:27.086Z,20
2023-02-01T13:28:27.740Z,20
2023-02-01T13:29:28.341Z,20
2023-02-01T13:30:29.070Z,20
2023-02-01T13:31:29.836Z,20
2023-02-01T13:33:51.135Z,20
2023-02-01T13:33:54.214Z,20
2023-02-01T13:34:33.687Z,20
2023-02-01T13:35:34.481Z,20
2023-02-01T13:36:35.925Z,20
2023-02-01T13:37:37.371Z,20
2023-02-01T13:38:38.071Z,20
2023-02-01T13:39:38.827Z,20
2023-02-01T13:40:39.466Z,20
2023-02-01T13:41:40.069Z,20
2023-02-01T13:42:40.664Z,20
2023-02-01T13:43:41.253Z,20
2023-02-01T13:44:41.951Z,20
2023-02-01T13:45:42.612Z,20
2023-02-01T13:46:43.225Z,20
2023-02-01T13:47:43.890Z,20
2023-02-01T13:48:44.482Z,20
2023-02-01T13:49:45.090Z,20
2023-02-01T13:50:45.679Z,20
2023-02-01T13:51:46.275Z,20
2023-02-01T13:52:46.882Z,20
2023-02-01T13:53:47.478Z,20
2023-02-01T13:54:48.074Z,20
2023-02-01T13:55:48.668Z,20
2023-02-01T13:56:49.276Z,20
2023-02-01T13:57:49.871Z,20
2023-02-01T13:58:50.652Z,20
2023-02-01T13:59:51.246Z,20
2023-02-01T14:00:51.845Z,20
2023-02-01T14:01:52.507Z,20
2023-02-01T14:02:53.109Z,20
2023-02-01T14:03:53.700Z,24
2023-02-01T14:04:54.306Z,20
2023-02-01T14:05:54.892Z,20
2023-02-01T14:06:57.567Z,24
2023-02-01T14:07:57.072Z,20
2023-02-01T14:08:57.689Z,20
2023-02-01T14:09:58.284Z,24
2023-02-01T14:10:58.885Z,28
2023-02-01T14:11:59.478Z,28
2023-02-01T14:13:00.108Z,28
2023-02-01T14:14:00.686Z,32
2023-02-01T14:15:01.295Z,32
2023-02-01T14:16:01.960Z,32
2023-02-01T14:17:02.543Z,36
2023-02-01T14:18:03.277Z,44
2023-02-01T14:19:03.937Z,44
2023-02-01T14:20:04.530Z,44
2023-02-01T14:21:09.791Z,48
2023-02-01T14:22:06.804Z,44
2023-02-01T14:23:07.396Z,52
2023-02-01T14:24:08.038Z,52
2023-02-01T14:25:08.648Z,52
2023-02-01T14:26:09.245Z,56
2023-02-01T14:27:09.843Z,56
2023-02-01T14:28:10.446Z,56
2023-02-01T14:29:18.652Z,60
2023-02-01T14:30:12.633Z,60
2023-02-01T14:31:13.336Z,64
2023-02-01T14:32:13.993Z,64
2023-02-01T14:33:16.168Z,68
2023-02-01T14:34:16.166Z,68
2023-02-01T14:35:16.766Z,68
2023-02-01T14:36:17.361Z,68
2023-02-01T14:37:17.965Z,72
2023-02-01T14:38:18.609Z,72
2023-02-01T14:39:19.212Z,76
2023-02-01T14:40:20.001Z,76
2023-02-01T14:41:21.515Z,76
2023-02-01T14:42:22.114Z,76
2023-02-01T14:43:33.051Z,76
2023-02-01T14:44:24.294Z,76
2023-02-01T14:45:26.372Z,76
2023-02-01T14:46:28.023Z,76